sensor_id;sensor_type;location;lat;lon;timestamp;P1;durP1;ratioP1;P2;durP2;ratioP2
21733;SDS011;11029;47.820;10.534;2023-05-20T00:02:12;11.02;;;8.02;;
21733;SDS011;11029;47.820;10.534;2023-05-20T00:04:39;9.70;;;8.35;;
21733;SDS011;11029;47.820;10.534;2023-05-20T00:07:07;9.57;;;7.97;;
21733;SDS011;11029;47.820;10.534;2023-05-20T00:09:34;11.32;;;7.72;;
21733;SDS011;11029;47.820;10.534;2023-05-20T00:12:01;10.00;;;7.47;;
21733;SDS011;11029;47.820;10.534;2023-05-20T00:14:28;9.32;;;7.00;;
21733;SDS011;11029;47.820;10.534;2023-05-20T00:16:54;8.93;;;7.10;;
21733;SDS011;11029;47.820;10.534;2023-05-20T00:19:21;10.23;;;7.63;;
21733;SDS011;11029;47.820;10.534;2023-05-20T00:21:48;15.15;;;8.73;;
21733;SDS011;11029;47.820;10.534;2023-05-20T00:24:15;10.30;;;7.72;;
21733;SDS011;11029;47.820;10.534;2023-05-20T00:26:42;9.57;;;7.82;;
21733;SDS011;11029;47.820;10.534;2023-05-20T00:29:09;7.95;;;6.60;;
21733;SDS011;11029;47.820;10.534;2023-05-20T00:31:36;8.35;;;6.60;;
21733;SDS011;11029;47.820;10.534;2023-05-20T00:34:03;8.02;;;7.13;;
21733;SDS011;11029;47.820;10.534;2023-05-20T00:36:30;7.68;;;5.97;;
21733;SDS011;11029;47.820;10.534;2023-05-20T00:38:57;8.75;;;6.45;;
21733;SDS011;11029;47.820;10.534;2023-05-20T00:41:24;10.15;;;7.30;;
21733;SDS011;11029;47.820;10.534;2023-05-20T00:43:54;10.05;;;7.32;;
21733;SDS011;11029;47.820;10.534;2023-05-20T00:46:22;9.25;;;7.68;;
21733;SDS011;11029;47.820;10.534;2023-05-20T00:48:50;8.93;;;7.43;;
21733;SDS011;11029;47.820;10.534;2023-05-20T00:51:17;9.05;;;7.20;;
21733;SDS011;11029;47.820;10.534;2023-05-20T00:53:45;9.38;;;7.60;;
21733;SDS011;11029;47.820;10.534;2023-05-20T00:56:13;8.85;;;7.32;;
21733;SDS011;11029;47.820;10.534;2023-05-20T00:58:39;8.07;;;6.68;;
21733;SDS011;11029;47.820;10.534;2023-05-20T01:01:06;11.10;;;7.75;;
21733;SDS011;11029;47.820;10.534;2023-05-20T01:03:33;9.60;;;7.80;;
21733;SDS011;11029;47.820;10.534;2023-05-20T01:06:01;7.63;;;6.28;;
21733;SDS011;11029;47.820;10.534;2023-05-20T01:08:28;7.10;;;6.40;;
21733;SDS011;11029;47.820;10.534;2023-05-20T01:11:15;8.70;;;7.18;;
21733;SDS011;11029;47.820;10.534;2023-05-20T01:13:55;9.52;;;7.07;;
21733;SDS011;11029;47.820;10.534;2023-05-20T01:16:31;10.73;;;7.63;;
21733;SDS011;11029;47.820;10.534;2023-05-20T01:19:01;8.98;;;7.22;;
21733;SDS011;11029;47.820;10.534;2023-05-20T01:21:29;9.85;;;7.53;;
21733;SDS011;11029;47.820;10.534;2023-05-20T01:23:57;9.75;;;8.25;;
21733;SDS011;11029;47.820;10.534;2023-05-20T01:26:24;8.10;;;7.25;;
21733;SDS011;11029;47.820;10.534;2023-05-20T01:28:52;11.20;;;7.75;;
21733;SDS011;11029;47.820;10.534;2023-05-20T01:31:20;10.18;;;8.00;;
21733;SDS011;11029;47.820;10.534;2023-05-20T01:33:51;10.48;;;8.15;;
21733;SDS011;11029;47.820;10.534;2023-05-20T01:36:21;13.35;;;8.43;;
21733;SDS011;11029;47.820;10.534;2023-05-20T01:38:48;9.45;;;7.65;;
21733;SDS011;11029;47.820;10.534;2023-05-20T01:41:16;9.25;;;7.72;;
21733;SDS011;11029;47.820;10.534;2023-05-20T01:43:43;14.35;;;8.82;;
21733;SDS011;11029;47.820;10.534;2023-05-20T01:46:10;11.30;;;8.77;;
21733;SDS011;11029;47.820;10.534;2023-05-20T01:48:37;10.43;;;8.57;;
21733;SDS011;11029;47.820;10.534;2023-05-20T01:51:04;11.07;;;8.55;;
21733;SDS011;11029;47.820;10.534;2023-05-20T01:53:31;9.63;;;8.10;;
21733;SDS011;11029;47.820;10.534;2023-05-20T01:55:58;9.60;;;8.45;;
21733;SDS011;11029;47.820;10.534;2023-05-20T01:58:25;12.27;;;8.23;;
21733;SDS011;11029;47.820;10.534;2023-05-20T02:00:52;9.35;;;7.70;;
21733;SDS011;11029;47.820;10.534;2023-05-20T02:03:18;10.07;;;7.93;;
21733;SDS011;11029;47.820;10.534;2023-05-20T02:05:45;9.32;;;7.80;;
21733;SDS011;11029;47.820;10.534;2023-05-20T02:08:12;10.00;;;7.75;;
21733;SDS011;11029;47.820;10.534;2023-05-20T02:10:39;9.15;;;7.43;;
21733;SDS011;11029;47.820;10.534;2023-05-20T02:13:05;10.15;;;8.00;;
21733;SDS011;11029;47.820;10.534;2023-05-20T02:15:33;10.98;;;8.35;;
21733;SDS011;11029;47.820;10.534;2023-05-20T02:18:00;10.00;;;8.48;;
21733;SDS011;11029;47.820;10.534;2023-05-20T02:20:27;12.07;;;8.13;;
21733;SDS011;11029;47.820;10.534;2023-05-20T02:22:54;9.93;;;8.30;;
21733;SDS011;11029;47.820;10.534;2023-05-20T02:25:21;10.32;;;8.85;;
21733;SDS011;11029;47.820;10.534;2023-05-20T02:27:48;11.77;;;8.45;;
21733;SDS011;11029;47.820;10.534;2023-05-20T02:30:15;12.43;;;8.60;;
21733;SDS011;11029;47.820;10.534;2023-05-20T02:32:42;12.60;;;9.35;;
21733;SDS011;11029;47.820;10.534;2023-05-20T02:35:10;14.25;;;9.43;;
21733;SDS011;11029;47.820;10.534;2023-05-20T02:37:36;10.50;;;8.30;;
21733;SDS011;11029;47.820;10.534;2023-05-20T02:40:04;9.95;;;8.70;;
21733;SDS011;11029;47.820;10.534;2023-05-20T02:42:32;13.75;;;8.93;;
21733;SDS011;11029;47.820;10.534;2023-05-20T02:44:59;11.57;;;8.38;;
21733;SDS011;11029;47.820;10.534;2023-05-20T02:47:26;10.23;;;8.20;;
21733;SDS011;11029;47.820;10.534;2023-05-20T02:49:52;8.98;;;7.63;;
21733;SDS011;11029;47.820;10.534;2023-05-20T02:52:19;10.93;;;8.43;;
21733;SDS011;11029;47.820;10.534;2023-05-20T02:54:47;9.50;;;7.95;;
21733;SDS011;11029;47.820;10.534;2023-05-20T02:57:14;10.70;;;8.18;;
21733;SDS011;11029;47.820;10.534;2023-05-20T02:59:41;12.02;;;9.05;;
21733;SDS011;11029;47.820;10.534;2023-05-20T03:02:08;9.38;;;8.15;;
21733;SDS011;11029;47.820;10.534;2023-05-20T03:04:34;12.48;;;9.30;;
21733;SDS011;11029;47.820;10.534;2023-05-20T03:07:04;13.02;;;9.27;;
21733;SDS011;11029;47.820;10.534;2023-05-20T03:09:32;9.90;;;8.43;;
21733;SDS011;11029;47.820;10.534;2023-05-20T03:11:59;12.48;;;9.25;;
21733;SDS011;11029;47.820;10.534;2023-05-20T03:14:26;10.38;;;8.43;;
21733;SDS011;11029;47.820;10.534;2023-05-20T03:16:53;12.43;;;8.18;;
21733;SDS011;11029;47.820;10.534;2023-05-20T03:19:22;12.23;;;9.07;;
21733;SDS011;11029;47.820;10.534;2023-05-20T03:21:49;11.98;;;8.95;;
21733;SDS011;11029;47.820;10.534;2023-05-20T03:24:16;9.70;;;8.30;;
21733;SDS011;11029;47.820;10.534;2023-05-20T03:26:45;11.20;;;8.48;;
21733;SDS011;11029;47.820;10.534;2023-05-20T03:29:12;11.35;;;8.32;;
21733;SDS011;11029;47.820;10.534;2023-05-20T03:31:39;9.13;;;8.15;;
21733;SDS011;11029;47.820;10.534;2023-05-20T03:34:06;9.80;;;7.90;;
21733;SDS011;11029;47.820;10.534;2023-05-20T03:36:33;11.75;;;8.00;;
21733;SDS011;11029;47.820;10.534;2023-05-20T03:39:01;10.57;;;8.02;;
21733;SDS011;11029;47.820;10.534;2023-05-20T03:41:31;9.23;;;7.90;;
21733;SDS011;11029;47.820;10.534;2023-05-20T03:43:58;14.07;;;8.77;;
21733;SDS011;11029;47.820;10.534;2023-05-20T03:46:25;10.63;;;8.73;;
21733;SDS011;11029;47.820;10.534;2023-05-20T03:48:52;11.00;;;8.75;;
21733;SDS011;11029;47.820;10.534;2023-05-20T03:51:18;11.05;;;8.73;;
21733;SDS011;11029;47.820;10.534;2023-05-20T03:53:46;10.30;;;8.43;;
21733;SDS011;11029;47.820;10.534;2023-05-20T03:56:13;10.35;;;8.63;;
21733;SDS011;11029;47.820;10.534;2023-05-20T03:58:41;12.00;;;8.15;;
21733;SDS011;11029;47.820;10.534;2023-05-20T04:01:08;9.57;;;8.20;;
21733;SDS011;11029;47.820;10.534;2023-05-20T04:03:36;9.55;;;7.78;;
21733;SDS011;11029;47.820;10.534;2023-05-20T04:06:03;12.15;;;8.68;;
21733;SDS011;11029;47.820;10.534;2023-05-20T04:08:30;12.88;;;8.70;;
21733;SDS011;11029;47.820;10.534;2023-05-20T04:10:57;11.63;;;8.73;;
21733;SDS011;11029;47.820;10.534;2023-05-20T04:13:24;10.88;;;8.95;;
21733;SDS011;11029;47.820;10.534;2023-05-20T04:15:51;12.30;;;8.90;;
21733;SDS011;11029;47.820;10.534;2023-05-20T04:18:18;12.10;;;9.18;;
21733;SDS011;11029;47.820;10.534;2023-05-20T04:20:45;10.13;;;8.27;;
21733;SDS011;11029;47.820;10.534;2023-05-20T04:23:13;11.43;;;8.90;;
21733;SDS011;11029;47.820;10.534;2023-05-20T04:25:40;10.80;;;8.98;;
21733;SDS011;11029;47.820;10.534;2023-05-20T04:28:07;10.82;;;8.45;;
21733;SDS011;11029;47.820;10.534;2023-05-20T04:30:35;10.32;;;8.02;;
21733;SDS011;11029;47.820;10.534;2023-05-20T04:33:02;9.63;;;8.43;;
21733;SDS011;11029;47.820;10.534;2023-05-20T04:35:30;11.23;;;8.50;;
21733;SDS011;11029;47.820;10.534;2023-05-20T04:38:01;11.38;;;8.65;;
21733;SDS011;11029;47.820;10.534;2023-05-20T04:40:28;13.90;;;10.13;;
21733;SDS011;11029;47.820;10.534;2023-05-20T04:42:56;15.57;;;12.98;;
21733;SDS011;11029;47.820;10.534;2023-05-20T04:45:26;14.07;;;10.70;;
21733;SDS011;11029;47.820;10.534;2023-05-20T04:47:52;13.90;;;11.48;;
21733;SDS011;11029;47.820;10.534;2023-05-20T04:50:19;17.33;;;13.95;;
21733;SDS011;11029;47.820;10.534;2023-05-20T04:52:47;16.77;;;12.65;;
21733;SDS011;11029;47.820;10.534;2023-05-20T04:55:14;15.80;;;11.43;;
21733;SDS011;11029;47.820;10.534;2023-05-20T04:57:41;16.50;;;11.55;;
21733;SDS011;11029;47.820;10.534;2023-05-20T05:00:09;14.30;;;11.45;;
21733;SDS011;11029;47.820;10.534;2023-05-20T05:02:39;15.98;;;11.93;;
21733;SDS011;11029;47.820;10.534;2023-05-20T05:05:06;16.15;;;12.73;;
21733;SDS011;11029;47.820;10.534;2023-05-20T05:07:33;16.83;;;11.90;;
21733;SDS011;11029;47.820;10.534;2023-05-20T05:10:00;19.00;;;12.50;;
21733;SDS011;11029;47.820;10.534;2023-05-20T05:12:29;19.00;;;13.70;;
21733;SDS011;11029;47.820;10.534;2023-05-20T05:14:56;19.55;;;16.00;;
21733;SDS011;11029;47.820;10.534;2023-05-20T05:17:25;17.75;;;12.45;;
21733;SDS011;11029;47.820;10.534;2023-05-20T05:19:52;17.48;;;12.35;;
21733;SDS011;11029;47.820;10.534;2023-05-20T05:22:19;21.67;;;16.70;;
21733;SDS011;11029;47.820;10.534;2023-05-20T05:24:45;20.25;;;16.08;;
21733;SDS011;11029;47.820;10.534;2023-05-20T05:27:12;20.75;;;15.82;;
21733;SDS011;11029;47.820;10.534;2023-05-20T05:29:39;17.05;;;13.25;;
21733;SDS011;11029;47.820;10.534;2023-05-20T05:32:06;24.80;;;16.23;;
21733;SDS011;11029;47.820;10.534;2023-05-20T05:34:33;17.95;;;12.63;;
21733;SDS011;11029;47.820;10.534;2023-05-20T05:36:59;15.20;;;11.48;;
21733;SDS011;11029;47.820;10.534;2023-05-20T05:39:26;17.15;;;10.65;;
21733;SDS011;11029;47.820;10.534;2023-05-20T05:41:53;17.15;;;11.38;;
21733;SDS011;11029;47.820;10.534;2023-05-20T05:44:21;19.48;;;13.60;;
21733;SDS011;11029;47.820;10.534;2023-05-20T05:46:48;17.58;;;11.98;;
21733;SDS011;11029;47.820;10.534;2023-05-20T05:49:15;21.92;;;12.45;;
21733;SDS011;11029;47.820;10.534;2023-05-20T05:51:42;17.10;;;11.63;;
21733;SDS011;11029;47.820;10.534;2023-05-20T05:54:10;16.65;;;11.77;;
21733;SDS011;11029;47.820;10.534;2023-05-20T05:56:37;16.10;;;11.98;;
21733;SDS011;11029;47.820;10.534;2023-05-20T05:59:04;15.07;;;11.55;;
21733;SDS011;11029;47.820;10.534;2023-05-20T06:01:31;15.27;;;10.68;;
21733;SDS011;11029;47.820;10.534;2023-05-20T06:03:58;14.35;;;10.65;;
21733;SDS011;11029;47.820;10.534;2023-05-20T06:06:25;14.60;;;10.63;;
21733;SDS011;11029;47.820;10.534;2023-05-20T06:08:52;14.70;;;10.60;;
21733;SDS011;11029;47.820;10.534;2023-05-20T06:11:19;14.38;;;10.65;;
21733;SDS011;11029;47.820;10.534;2023-05-20T06:13:47;15.10;;;10.77;;
21733;SDS011;11029;47.820;10.534;2023-05-20T06:16:14;13.98;;;10.82;;
21733;SDS011;11029;47.820;10.534;2023-05-20T06:18:41;14.23;;;10.50;;
21733;SDS011;11029;47.820;10.534;2023-05-20T06:21:08;13.07;;;9.75;;
21733;SDS011;11029;47.820;10.534;2023-05-20T06:23:35;15.50;;;11.65;;
21733;SDS011;11029;47.820;10.534;2023-05-20T06:26:05;15.10;;;10.73;;
21733;SDS011;11029;47.820;10.534;2023-05-20T06:28:31;13.63;;;10.25;;
21733;SDS011;11029;47.820;10.534;2023-05-20T06:30:58;13.60;;;10.13;;
21733;SDS011;11029;47.820;10.534;2023-05-20T06:33:29;13.25;;;9.93;;
21733;SDS011;11029;47.820;10.534;2023-05-20T06:35:59;13.63;;;11.60;;
21733;SDS011;11029;47.820;10.534;2023-05-20T06:38:29;14.52;;;10.77;;
21733;SDS011;11029;47.820;10.534;2023-05-20T06:40:56;14.05;;;10.48;;
21733;SDS011;11029;47.820;10.534;2023-05-20T06:43:23;14.02;;;9.70;;
21733;SDS011;11029;47.820;10.534;2023-05-20T06:46:02;12.02;;;9.55;;
21733;SDS011;11029;47.820;10.534;2023-05-20T06:48:37;10.98;;;9.18;;
21733;SDS011;11029;47.820;10.534;2023-05-20T06:51:06;11.63;;;9.13;;
21733;SDS011;11029;47.820;10.534;2023-05-20T06:53:34;11.82;;;8.80;;
21733;SDS011;11029;47.820;10.534;2023-05-20T06:56:02;11.35;;;8.68;;
21733;SDS011;11029;47.820;10.534;2023-05-20T06:58:30;12.52;;;8.95;;
21733;SDS011;11029;47.820;10.534;2023-05-20T07:00:56;14.32;;;9.00;;
21733;SDS011;11029;47.820;10.534;2023-05-20T07:03:24;11.75;;;8.85;;
21733;SDS011;11029;47.820;10.534;2023-05-20T07:05:51;12.18;;;9.18;;
21733;SDS011;11029;47.820;10.534;2023-05-20T07:08:18;9.10;;;8.07;;
21733;SDS011;11029;47.820;10.534;2023-05-20T07:10:45;11.80;;;9.02;;
21733;SDS011;11029;47.820;10.534;2023-05-20T07:13:16;9.90;;;8.48;;
21733;SDS011;11029;47.820;10.534;2023-05-20T07:15:45;10.07;;;8.23;;
21733;SDS011;11029;47.820;10.534;2023-05-20T07:18:14;12.40;;;9.23;;
21733;SDS011;11029;47.820;10.534;2023-05-20T07:20:43;10.77;;;9.05;;
21733;SDS011;11029;47.820;10.534;2023-05-20T07:23:21;11.73;;;9.32;;
21733;SDS011;11029;47.820;10.534;2023-05-20T07:25:51;11.50;;;9.20;;
21733;SDS011;11029;47.820;10.534;2023-05-20T07:28:19;9.57;;;7.88;;
21733;SDS011;11029;47.820;10.534;2023-05-20T07:30:48;11.70;;;8.55;;
21733;SDS011;11029;47.820;10.534;2023-05-20T07:33:26;9.48;;;8.48;;
21733;SDS011;11029;47.820;10.534;2023-05-20T07:35:52;10.25;;;8.05;;
21733;SDS011;11029;47.820;10.534;2023-05-20T07:38:20;11.88;;;9.18;;
21733;SDS011;11029;47.820;10.534;2023-05-20T07:40:54;11.25;;;8.70;;
21733;SDS011;11029;47.820;10.534;2023-05-20T07:43:21;11.18;;;8.38;;
21733;SDS011;11029;47.820;10.534;2023-05-20T07:45:48;12.45;;;9.15;;
21733;SDS011;11029;47.820;10.534;2023-05-20T07:48:15;11.10;;;8.32;;
21733;SDS011;11029;47.820;10.534;2023-05-20T07:50:41;10.68;;;8.48;;
21733;SDS011;11029;47.820;10.534;2023-05-20T07:53:10;8.55;;;7.22;;
21733;SDS011;11029;47.820;10.534;2023-05-20T07:55:37;10.38;;;8.13;;
21733;SDS011;11029;47.820;10.534;2023-05-20T07:58:05;8.30;;;7.45;;
21733;SDS011;11029;47.820;10.534;2023-05-20T08:00:33;7.88;;;6.72;;
21733;SDS011;11029;47.820;10.534;2023-05-20T08:03:03;10.15;;;7.72;;
21733;SDS011;11029;47.820;10.534;2023-05-20T08:05:40;10.57;;;7.55;;
21733;SDS011;11029;47.820;10.534;2023-05-20T08:08:07;10.98;;;7.22;;
21733;SDS011;11029;47.820;10.534;2023-05-20T08:10:47;7.47;;;6.68;;
21733;SDS011;11029;47.820;10.534;2023-05-20T08:13:14;9.07;;;7.13;;
21733;SDS011;11029;47.820;10.534;2023-05-20T08:15:41;7.97;;;6.78;;
21733;SDS011;11029;47.820;10.534;2023-05-20T08:18:07;8.95;;;6.72;;
21733;SDS011;11029;47.820;10.534;2023-05-20T08:20:35;7.53;;;6.07;;
21733;SDS011;11029;47.820;10.534;2023-05-20T08:23:02;8.13;;;6.60;;
21733;SDS011;11029;47.820;10.534;2023-05-20T08:25:29;8.20;;;7.05;;
21733;SDS011;11029;47.820;10.534;2023-05-20T08:27:56;8.65;;;7.10;;
21733;SDS011;11029;47.820;10.534;2023-05-20T08:30:23;8.27;;;6.78;;
21733;SDS011;11029;47.820;10.534;2023-05-20T08:32:51;7.72;;;6.72;;
21733;SDS011;11029;47.820;10.534;2023-05-20T08:35:18;8.35;;;6.60;;
21733;SDS011;11029;47.820;10.534;2023-05-20T08:37:49;7.60;;;6.50;;
21733;SDS011;11029;47.820;10.534;2023-05-20T08:40:16;8.05;;;6.85;;
21733;SDS011;11029;47.820;10.534;2023-05-20T08:42:43;7.68;;;5.97;;
21733;SDS011;11029;47.820;10.534;2023-05-20T08:45:11;8.73;;;7.18;;
21733;SDS011;11029;47.820;10.534;2023-05-20T08:47:41;8.07;;;6.78;;
21733;SDS011;11029;47.820;10.534;2023-05-20T08:50:12;9.20;;;7.15;;
21733;SDS011;11029;47.820;10.534;2023-05-20T08:52:43;10.18;;;7.05;;
21733;SDS011;11029;47.820;10.534;2023-05-20T08:57:49;9.80;;;6.90;;
21733;SDS011;11029;47.820;10.534;2023-05-20T09:00:16;8.60;;;7.13;;
21733;SDS011;11029;47.820;10.534;2023-05-20T09:02:44;8.52;;;7.22;;
21733;SDS011;11029;47.820;10.534;2023-05-20T09:05:11;8.68;;;7.18;;
21733;SDS011;11029;47.820;10.534;2023-05-20T09:07:39;11.93;;;8.18;;
21733;SDS011;11029;47.820;10.534;2023-05-20T09:10:07;9.07;;;6.88;;
21733;SDS011;11029;47.820;10.534;2023-05-20T09:12:35;9.20;;;7.82;;
21733;SDS011;11029;47.820;10.534;2023-05-20T09:15:03;9.27;;;7.47;;
21733;SDS011;11029;47.820;10.534;2023-05-20T09:17:33;8.73;;;7.80;;
21733;SDS011;11029;47.820;10.534;2023-05-20T09:20:08;9.68;;;7.60;;
21733;SDS011;11029;47.820;10.534;2023-05-20T09:22:37;10.48;;;7.78;;
21733;SDS011;11029;47.820;10.534;2023-05-20T09:25:04;9.32;;;7.43;;
21733;SDS011;11029;47.820;10.534;2023-05-20T09:27:31;7.97;;;7.18;;
21733;SDS011;11029;47.820;10.534;2023-05-20T09:29:59;10.30;;;8.23;;
21733;SDS011;11029;47.820;10.534;2023-05-20T09:32:26;8.25;;;6.90;;
21733;SDS011;11029;47.820;10.534;2023-05-20T09:34:54;8.10;;;6.20;;
21733;SDS011;11029;47.820;10.534;2023-05-20T09:37:20;7.47;;;6.30;;
21733;SDS011;11029;47.820;10.534;2023-05-20T09:39:53;10.98;;;7.22;;
21733;SDS011;11029;47.820;10.534;2023-05-20T09:42:30;7.85;;;6.88;;
21733;SDS011;11029;47.820;10.534;2023-05-20T09:45:05;8.55;;;7.22;;
21733;SDS011;11029;47.820;10.534;2023-05-20T09:47:37;8.40;;;6.90;;
21733;SDS011;11029;47.820;10.534;2023-05-20T09:50:08;7.72;;;6.40;;
21733;SDS011;11029;47.820;10.534;2023-05-20T09:52:36;8.65;;;6.43;;
21733;SDS011;11029;47.820;10.534;2023-05-20T09:55:07;8.70;;;7.13;;
21733;SDS011;11029;47.820;10.534;2023-05-20T09:57:36;9.07;;;7.28;;
21733;SDS011;11029;47.820;10.534;2023-05-20T10:00:03;8.45;;;7.35;;
21733;SDS011;11029;47.820;10.534;2023-05-20T10:02:49;8.95;;;7.18;;
21733;SDS011;11029;47.820;10.534;2023-05-20T10:05:21;9.40;;;6.93;;
21733;SDS011;11029;47.820;10.534;2023-05-20T10:13:23;8.60;;;6.20;;
21733;SDS011;11029;47.820;10.534;2023-05-20T10:21:37;9.00;;;6.05;;
21733;SDS011;11029;47.820;10.534;2023-05-20T10:24:07;7.47;;;6.30;;
21733;SDS011;11029;47.820;10.534;2023-05-20T10:26:35;7.35;;;6.47;;
21733;SDS011;11029;47.820;10.534;2023-05-20T10:29:15;7.82;;;6.25;;
21733;SDS011;11029;47.820;10.534;2023-05-20T10:31:43;9.38;;;6.13;;
21733;SDS011;11029;47.820;10.534;2023-05-20T10:34:14;7.50;;;6.03;;
21733;SDS011;11029;47.820;10.534;2023-05-20T10:39:24;7.57;;;6.78;;
21733;SDS011;11029;47.820;10.534;2023-05-20T10:42:13;7.18;;;6.43;;
21733;SDS011;11029;47.820;10.534;2023-05-20T10:44:40;7.30;;;6.03;;
21733;SDS011;11029;47.820;10.534;2023-05-20T10:47:10;6.70;;;5.72;;
21733;SDS011;11029;47.820;10.534;2023-05-20T10:49:44;8.93;;;5.82;;
21733;SDS011;11029;47.820;10.534;2023-05-20T10:52:15;7.03;;;6.32;;
21733;SDS011;11029;47.820;10.534;2023-05-20T10:54:43;8.13;;;6.03;;
21733;SDS011;11029;47.820;10.534;2023-05-20T10:57:21;6.53;;;5.82;;
21733;SDS011;11029;47.820;10.534;2023-05-20T10:59:49;5.85;;;5.25;;
21733;SDS011;11029;47.820;10.534;2023-05-20T11:02:16;7.85;;;5.78;;
21733;SDS011;11029;47.820;10.534;2023-05-20T11:04:44;7.07;;;5.88;;
21733;SDS011;11029;47.820;10.534;2023-05-20T11:07:12;7.10;;;6.40;;
21733;SDS011;11029;47.820;10.534;2023-05-20T11:09:49;8.20;;;6.10;;
21733;SDS011;11029;47.820;10.534;2023-05-20T11:12:16;6.45;;;5.72;;
21733;SDS011;11029;47.820;10.534;2023-05-20T11:14:43;5.63;;;5.07;;
21733;SDS011;11029;47.820;10.534;2023-05-20T11:17:09;7.80;;;5.97;;
21733;SDS011;11029;47.820;10.534;2023-05-20T11:19:39;7.57;;;6.35;;
21733;SDS011;11029;47.820;10.534;2023-05-20T11:22:06;8.70;;;5.38;;
21733;SDS011;11029;47.820;10.534;2023-05-20T11:24:33;7.43;;;5.43;;
21733;SDS011;11029;47.820;10.534;2023-05-20T11:27:00;6.10;;;5.50;;
21733;SDS011;11029;47.820;10.534;2023-05-20T11:29:27;7.07;;;5.80;;
21733;SDS011;11029;47.820;10.534;2023-05-20T11:31:58;7.55;;;5.80;;
21733;SDS011;11029;47.820;10.534;2023-05-20T11:34:25;9.63;;;6.35;;
21733;SDS011;11029;47.820;10.534;2023-05-20T11:36:58;9.50;;;7.25;;
21733;SDS011;11029;47.820;10.534;2023-05-20T11:39:25;7.78;;;6.80;;
21733;SDS011;11029;47.820;10.534;2023-05-20T11:41:55;9.82;;;7.25;;
21733;SDS011;11029;47.820;10.534;2023-05-20T11:44:23;8.18;;;7.18;;
21733;SDS011;11029;47.820;10.534;2023-05-20T11:46:50;7.55;;;6.32;;
21733;SDS011;11029;47.820;10.534;2023-05-20T11:49:24;9.43;;;7.18;;
21733;SDS011;11029;47.820;10.534;2023-05-20T11:51:50;8.45;;;7.20;;
21733;SDS011;11029;47.820;10.534;2023-05-20T11:54:17;8.55;;;7.05;;
21733;SDS011;11029;47.820;10.534;2023-05-20T11:56:47;7.80;;;6.43;;
21733;SDS011;11029;47.820;10.534;2023-05-20T11:59:14;8.52;;;7.07;;
21733;SDS011;11029;47.820;10.534;2023-05-20T12:01:41;11.73;;;7.60;;
21733;SDS011;11029;47.820;10.534;2023-05-20T12:04:08;11.68;;;7.55;;
21733;SDS011;11029;47.820;10.534;2023-05-20T12:06:35;9.98;;;7.45;;
21733;SDS011;11029;47.820;10.534;2023-05-20T12:09:03;10.98;;;8.45;;
21733;SDS011;11029;47.820;10.534;2023-05-20T12:11:34;9.82;;;8.20;;
21733;SDS011;11029;47.820;10.534;2023-05-20T12:14:02;12.15;;;8.40;;
21733;SDS011;11029;47.820;10.534;2023-05-20T12:16:29;10.55;;;8.60;;
21733;SDS011;11029;47.820;10.534;2023-05-20T12:18:58;10.05;;;8.40;;
21733;SDS011;11029;47.820;10.534;2023-05-20T12:21:25;14.40;;;9.38;;
21733;SDS011;11029;47.820;10.534;2023-05-20T12:23:52;10.30;;;8.60;;
21733;SDS011;11029;47.820;10.534;2023-05-20T12:26:23;11.48;;;8.65;;
21733;SDS011;11029;47.820;10.534;2023-05-20T12:28:51;11.65;;;8.65;;
21733;SDS011;11029;47.820;10.534;2023-05-20T12:31:18;9.60;;;8.60;;
21733;SDS011;11029;47.820;10.534;2023-05-20T12:33:46;12.55;;;9.18;;
21733;SDS011;11029;47.820;10.534;2023-05-20T12:36:13;8.90;;;7.80;;
21733;SDS011;11029;47.820;10.534;2023-05-20T12:38:40;9.88;;;8.35;;
21733;SDS011;11029;47.820;10.534;2023-05-20T12:41:07;13.90;;;9.30;;
21733;SDS011;11029;47.820;10.534;2023-05-20T12:43:36;10.98;;;8.00;;
21733;SDS011;11029;47.820;10.534;2023-05-20T12:46:03;10.45;;;7.97;;
21733;SDS011;11029;47.820;10.534;2023-05-20T12:48:31;7.60;;;6.53;;
21733;SDS011;11029;47.820;10.534;2023-05-20T12:50:57;10.52;;;7.25;;
21733;SDS011;11029;47.820;10.534;2023-05-20T12:53:25;7.18;;;6.47;;
21733;SDS011;11029;47.820;10.534;2023-05-20T12:55:51;6.72;;;5.65;;
21733;SDS011;11029;47.820;10.534;2023-05-20T12:58:18;7.13;;;5.75;;
21733;SDS011;11029;47.820;10.534;2023-05-20T13:00:45;6.63;;;5.13;;
21733;SDS011;11029;47.820;10.534;2023-05-20T13:03:12;6.95;;;6.00;;
21733;SDS011;11029;47.820;10.534;2023-05-20T13:05:39;5.65;;;5.05;;
21733;SDS011;11029;47.820;10.534;2023-05-20T13:08:06;6.50;;;5.18;;
21733;SDS011;11029;47.820;10.534;2023-05-20T13:10:34;6.82;;;4.90;;
21733;SDS011;11029;47.820;10.534;2023-05-20T13:13:01;6.22;;;5.63;;
21733;SDS011;11029;47.820;10.534;2023-05-20T13:15:31;6.15;;;5.57;;
21733;SDS011;11029;47.820;10.534;2023-05-20T13:17:58;7.35;;;5.50;;
21733;SDS011;11029;47.820;10.534;2023-05-20T13:20:28;6.25;;;4.97;;
21733;SDS011;11029;47.820;10.534;2023-05-20T13:22:55;4.97;;;4.57;;
21733;SDS011;11029;47.820;10.534;2023-05-20T13:25:22;5.68;;;5.10;;
21733;SDS011;11029;47.820;10.534;2023-05-20T13:27:48;5.68;;;4.38;;
21733;SDS011;11029;47.820;10.534;2023-05-20T13:30:16;6.72;;;5.50;;
21733;SDS011;11029;47.820;10.534;2023-05-20T13:32:42;6.88;;;5.07;;
21733;SDS011;11029;47.820;10.534;2023-05-20T13:35:09;5.30;;;4.80;;
21733;SDS011;11029;47.820;10.534;2023-05-20T13:37:38;4.60;;;4.20;;
21733;SDS011;11029;47.820;10.534;2023-05-20T13:40:05;5.68;;;5.07;;
21733;SDS011;11029;47.820;10.534;2023-05-20T13:42:32;5.68;;;5.07;;
21733;SDS011;11029;47.820;10.534;2023-05-20T13:44:59;7.25;;;5.00;;
21733;SDS011;11029;47.820;10.534;2023-05-20T13:47:25;3.92;;;3.63;;
21733;SDS011;11029;47.820;10.534;2023-05-20T13:49:53;4.32;;;3.92;;
21733;SDS011;11029;47.820;10.534;2023-05-20T13:52:19;7.35;;;6.68;;
21733;SDS011;11029;47.820;10.534;2023-05-20T13:54:46;4.78;;;4.30;;
21733;SDS011;11029;47.820;10.534;2023-05-20T13:57:14;3.97;;;3.28;;
21733;SDS011;11029;47.820;10.534;2023-05-20T13:59:41;3.80;;;3.30;;
21733;SDS011;11029;47.820;10.534;2023-05-20T14:02:07;4.20;;;3.40;;
21733;SDS011;11029;47.820;10.534;2023-05-20T14:04:34;3.33;;;2.92;;
21733;SDS011;11029;47.820;10.534;2023-05-20T14:07:04;3.72;;;3.42;;
21733;SDS011;11029;47.820;10.534;2023-05-20T14:09:34;3.15;;;2.85;;
21733;SDS011;11029;47.820;10.534;2023-05-20T14:12:01;5.32;;;3.40;;
21733;SDS011;11029;47.820;10.534;2023-05-20T14:14:28;5.28;;;3.60;;
21733;SDS011;11029;47.820;10.534;2023-05-20T14:16:55;3.28;;;2.97;;
21733;SDS011;11029;47.820;10.534;2023-05-20T14:19:21;6.85;;;2.78;;
21733;SDS011;11029;47.820;10.534;2023-05-20T14:21:48;3.25;;;2.95;;
21733;SDS011;11029;47.820;10.534;2023-05-20T14:24:15;4.50;;;2.47;;
21733;SDS011;11029;47.820;10.534;2023-05-20T14:26:42;3.22;;;2.17;;
21733;SDS011;11029;47.820;10.534;2023-05-20T14:29:09;2.35;;;2.15;;
21733;SDS011;11029;47.820;10.534;2023-05-20T14:31:35;2.30;;;2.17;;
21733;SDS011;11029;47.820;10.534;2023-05-20T14:34:04;2.80;;;2.22;;
21733;SDS011;11029;47.820;10.534;2023-05-20T14:36:31;2.25;;;2.08;;
21733;SDS011;11029;47.820;10.534;2023-05-20T14:38:58;2.22;;;2.00;;
21733;SDS011;11029;47.820;10.534;2023-05-20T14:41:25;2.38;;;2.17;;
21733;SDS011;11029;47.820;10.534;2023-05-20T14:43:51;3.75;;;1.98;;
21733;SDS011;11029;47.820;10.534;2023-05-20T14:46:18;2.80;;;2.00;;
21733;SDS011;11029;47.820;10.534;2023-05-20T14:48:45;3.65;;;2.10;;